createdAt,value
2022-12-19T00:00:32.701Z,38.13
2022-12-19T00:05:38.169Z,33.58
2022-12-19T00:10:39.872Z,40.92
2022-12-19T00:15:42.013Z,32.20
2022-12-19T00:20:44.173Z,33.88
2022-12-19T00:25:45.908Z,36.15
2022-12-19T00:30:48.814Z,35.67
2022-12-19T00:35:50.899Z,37.10
2022-12-19T00:40:52.639Z,37.28
2022-12-19T00:45:54.442Z,36.00
2022-12-19T00:51:04.183Z,35.70
2022-12-19T00:56:12.760Z,35.25
2022-12-19T01:01:18.095Z,35.25
2022-12-19T01:06:20.265Z,32.25
2022-12-19T01:11:42.643Z,36.50
2022-12-19T01:16:44.464Z,37.88
2022-12-19T01:21:46.482Z,36.00
2022-12-19T01:26:48.452Z,40.10
2022-12-19T01:31:50.294Z,39.08
2022-12-19T01:36:52.047Z,33.33
2022-12-19T01:41:53.764Z,37.67
2022-12-19T01:46:58.221Z,42.15
2022-12-19T01:52:06.322Z,36.53
2022-12-19T01:57:13.929Z,36.88
2022-12-19T02:02:23.231Z,37.70
2022-12-19T02:07:26.562Z,42.85
2022-12-19T02:12:33.658Z,35.35
2022-12-19T02:17:41.499Z,33.63
2022-12-19T02:22:55.505Z,34.55
2022-12-19T02:28:12.283Z,34.65
2022-12-19T02:33:44.764Z,39.45
2022-12-19T02:39:08.116Z,40.63
2022-12-19T02:44:19.223Z,34.17
2022-12-19T02:49:25.993Z,35.88
2022-12-19T02:54:32.677Z,37.20
2022-12-19T03:00:03.729Z,35.72
2022-12-19T03:05:21.574Z,30.98
2022-12-19T03:10:38.859Z,37.90
2022-12-19T03:15:41.607Z,37.15
2022-12-19T03:20:54.749Z,39.35
2022-12-19T03:26:01.806Z,37.85
2022-12-19T03:31:05.400Z,36.97
2022-12-19T03:36:12.417Z,33.88
2022-12-19T03:41:16.730Z,37.40
2022-12-19T03:46:26.131Z,37.53
2022-12-19T03:51:59.247Z,38.42
2022-12-19T03:57:30.543Z,43.88
2022-12-19T04:02:37.372Z,55.05
2022-12-19T04:07:40.309Z,39.47
2022-12-19T04:12:54.479Z,33.42
2022-12-19T04:17:59.092Z,32.63
2022-12-19T04:23:06.932Z,33.55
2022-12-19T04:28:22.349Z,41.38
2022-12-19T04:33:24.716Z,43.92
2022-12-19T04:38:27.395Z,35.47
2022-12-19T04:43:30.751Z,40.20
2022-12-19T04:48:35.668Z,38.88
2022-12-19T04:53:37.412Z,32.75
2022-12-19T04:58:39.240Z,35.05
2022-12-19T05:03:41.160Z,34.80
2022-12-19T05:08:43.673Z,35.10
2022-12-19T05:13:45.399Z,37.00
2022-12-19T05:18:47.340Z,37.70
2022-12-19T05:23:49.970Z,40.00
2022-12-19T05:28:52.290Z,36.60
2022-12-19T05:33:54.521Z,46.85
2022-12-19T05:38:56.233Z,37.80
2022-12-19T05:43:58.033Z,36.22
2022-12-19T05:49:00.013Z,37.47
2022-12-19T05:54:01.897Z,41.97
2022-12-19T05:59:03.657Z,43.75
2022-12-19T06:04:05.683Z,37.15
2022-12-19T06:09:08.282Z,38.65
2022-12-19T06:14:09.999Z,37.38
2022-12-19T06:19:11.904Z,34.13
2022-12-19T06:24:13.740Z,42.47
2022-12-19T06:29:16.404Z,39.97
2022-12-19T06:34:39.479Z,38.40
2022-12-19T06:39:40.049Z,39.85
2022-12-19T06:44:41.983Z,49.58
2022-12-19T06:49:44.224Z,44.67
2022-12-19T06:54:45.987Z,36.92
2022-12-19T06:59:47.814Z,36.53
2022-12-19T07:05:02.279Z,35.70
2022-12-19T07:10:06.266Z,30.33
2022-12-19T07:15:08.548Z,32.05
2022-12-19T07:20:11.523Z,40.40
2022-12-19T07:25:17.881Z,40.85
2022-12-19T07:30:19.764Z,36.22
2022-12-19T07:35:24.864Z,34.20
2022-12-19T07:40:26.712Z,39.80
2022-12-19T07:45:29.492Z,34.75
2022-12-19T07:50:31.952Z,37.55
2022-12-19T07:55:42.023Z,38.58
2022-12-19T08:00:44.171Z,40.05
2022-12-19T08:05:46.334Z,40.88
2022-12-19T08:10:48.142Z,36.28
2022-12-19T08:15:50.132Z,37.70
2022-12-19T08:20:51.906Z,47.15
2022-12-19T08:26:05.539Z,42.60
2022-12-19T08:31:16.839Z,38.35
2022-12-19T08:36:21.617Z,41.33
2022-12-19T08:41:23.798Z,45.05
2022-12-19T08:46:26.063Z,50.95
2022-12-19T08:51:27.898Z,55.10
2022-12-19T08:56:30.046Z,48.10
2022-12-19T09:01:32.002Z,41.00
2022-12-19T09:06:34.013Z,38.00
2022-12-19T09:11:47.978Z,39.70
2022-12-19T09:16:53.775Z,41.45
2022-12-19T09:21:55.951Z,38.83
2022-12-19T09:26:57.685Z,67.57
2022-12-19T09:31:59.573Z,40.95
2022-12-19T09:37:01.726Z,36.13
2022-12-19T09:42:40.779Z,36.33
2022-12-19T09:47:45.522Z,36.97
2022-12-19T09:52:55.760Z,40.63
2022-12-19T09:58:08.424Z,51.47
2022-12-19T10:03:39.737Z,48.83
2022-12-19T10:09:23.117Z,43.53
2022-12-19T10:14:43.766Z,48.70
2022-12-19T10:20:33.105Z,61.67
2022-12-19T10:25:59.630Z,49.72
2022-12-19T10:31:21.814Z,42.03
2022-12-19T10:36:48.928Z,50.55
2022-12-19T10:41:51.356Z,46.13
2022-12-19T10:46:53.723Z,41.67
2022-12-19T10:51:55.921Z,37.30
2022-12-19T10:57:27.414Z,45.38
2022-12-19T11:02:47.689Z,45.90
2022-12-19T11:08:07.726Z,63.88
2022-12-19T11:17:06.201Z,58.38
2022-12-19T11:27:57.662Z,52.67
2022-12-19T11:29:31.413Z,42.17
2022-12-19T11:35:36.491Z,43.72
2022-12-19T11:40:49.477Z,38.63
2022-12-19T11:46:28.617Z,39.00
2022-12-19T11:51:56.301Z,39.78
2022-12-19T11:56:59.775Z,45.50
2022-12-19T12:02:30.907Z,38.92
2022-12-19T12:09:29.497Z,46.15
2022-12-19T12:23:46.594Z,35.88
2022-12-19T12:31:23.616Z,39.80
2022-12-19T12:31:26.004Z,43.15
2022-12-19T12:31:58.825Z,45.25
2022-12-19T12:37:54.117Z,37.17
2022-12-19T12:41:54.116Z,36.20
2022-12-19T12:47:05.027Z,38.35
2022-12-19T12:52:23.904Z,49.85
2022-12-19T12:57:28.768Z,33.83
2022-12-19T13:02:33.535Z,36.22
2022-12-19T13:07:43.547Z,36.78
2022-12-19T13:13:00.336Z,37.85
2022-12-19T13:18:12.269Z,45.17
2022-12-19T13:23:45.041Z,36.25
2022-12-19T13:28:46.927Z,33.97
2022-12-19T13:34:16.264Z,32.53
2022-12-19T13:39:56.781Z,43.15
2022-12-19T13:44:58.194Z,32.80
2022-12-19T13:50:04.406Z,41.53
2022-12-19T13:55:14.192Z,37.90
2022-12-19T14:00:22.555Z,35.65
2022-12-19T14:06:17.614Z,40.60
2022-12-19T14:11:36.349Z,50.20
2022-12-19T14:16:19.951Z,32.67
2022-12-19T14:22:03.940Z,33.10
2022-12-19T14:28:19.305Z,39.60
2022-12-19T14:33:47.422Z,63.83
2022-12-19T14:39:19.687Z,38.25
2022-12-19T14:43:59.551Z,33.20
2022-12-19T14:53:51.245Z,37.40
2022-12-19T14:59:50.345Z,42.50
2022-12-19T15:05:06.433Z,41.63
2022-12-19T15:11:06.814Z,42.42
2022-12-19T15:15:46.288Z,47.45
2022-12-19T15:20:49.340Z,45.53
2022-12-19T15:26:08.780Z,52.17
2022-12-19T15:31:35.288Z,50.92
2022-12-19T15:36:37.392Z,49.20
2022-12-19T15:41:39.734Z,49.08
2022-12-19T15:46:48.462Z,59.88
2022-12-19T15:51:51.209Z,63.15
2022-12-19T15:56:56.749Z,65.55
2022-12-19T16:01:59.063Z,52.60
2022-12-19T16:07:00.913Z,48.88
2022-12-19T16:12:03.213Z,37.67
2022-12-19T16:17:10.534Z,54.97
2022-12-19T16:22:19.672Z,74.95
2022-12-19T16:27:28.425Z,77.28
2022-12-19T16:32:30.681Z,130.02
2022-12-19T16:37:32.846Z,110.95
2022-12-19T16:42:35.034Z,93.93
2022-12-19T16:47:36.838Z,71.68
2022-12-19T16:52:42.502Z,100.53
2022-12-19T16:57:47.155Z,94.88
2022-12-19T17:03:14.503Z,101.05
2022-12-19T17:08:19.074Z,114.15
2022-12-19T17:13:22.313Z,109.55
2022-12-19T17:18:42.852Z,83.13
2022-12-19T17:23:46.295Z,58.53
2022-12-19T17:28:48.590Z,54.92
2022-12-19T17:33:51.232Z,82.45
2022-12-19T17:38:53.348Z,80.35
2022-12-19T17:43:55.614Z,50.63
2022-12-19T17:48:57.778Z,39.00
2022-12-19T17:53:59.902Z,31.65
2022-12-19T17:59:01.680Z,37.17
2022-12-19T18:04:03.742Z,29.75
2022-12-19T18:09:05.625Z,42.35
2022-12-19T18:14:07.667Z,41.10
2022-12-19T18:19:21.206Z,41.70
2022-12-19T18:24:24.557Z,45.03
2022-12-19T18:29:26.328Z,45.92
2022-12-19T18:34:30.990Z,50.08
2022-12-19T18:39:34.112Z,36.60
2022-12-19T18:44:36.253Z,54.70
2022-12-19T18:49:38.142Z,49.15
2022-12-19T18:54:40.546Z,45.03
2022-12-19T18:59:42.284Z,52.70
2022-12-19T19:04:44.033Z,77.65
2022-12-19T19:09:45.717Z,78.15
2022-12-19T19:14:47.367Z,40.67
2022-12-19T19:19:49.530Z,33.05
2022-12-19T19:24:51.616Z,34.80
2022-12-19T19:29:53.256Z,63.30
2022-12-19T19:34:55.698Z,57.65
2022-12-19T19:39:57.437Z,44.05
2022-12-19T19:44:59.153Z,30.38
2022-12-19T19:50:00.981Z,38.17
2022-12-19T19:55:03.071Z,35.05
2022-12-19T20:00:06.671Z,44.33
2022-12-19T20:05:09.585Z,33.97
2022-12-19T20:10:13.444Z,38.15
2022-12-19T20:15:18.328Z,33.75
2022-12-19T20:20:20.481Z,32.25
2022-12-19T20:25:22.198Z,77.18
2022-12-19T20:30:24.190Z,56.40
2022-12-19T20:35:25.867Z,35.60
2022-12-19T20:40:27.717Z,37.08
2022-12-19T20:45:29.425Z,37.88
2022-12-19T20:50:31.602Z,33.00
2022-12-19T20:55:33.389Z,32.20
2022-12-19T21:00:35.076Z,42.30
2022-12-19T21:05:37.192Z,43.72
2022-12-19T21:10:38.943Z,65.43
2022-12-19T21:15:40.746Z,51.38
2022-12-19T21:20:42.443Z,32.63
2022-12-19T21:25:44.764Z,36.95
2022-12-19T21:30:46.533Z,26.73
2022-12-19T21:35:48.677Z,35.90
2022-12-19T21:40:50.468Z,54.47
2022-12-19T21:45:52.214Z,71.32
2022-12-19T21:50:56.897Z,80.28
2022-12-19T21:56:04.026Z,44.88
2022-12-19T22:01:08.344Z,26.27
2022-12-19T22:06:20.995Z,28.90
2022-12-19T22:11:29.146Z,37.92
2022-12-19T22:16:31.626Z,41.63
2022-12-19T22:21:34.067Z,39.70
2022-12-19T22:26:36.995Z,31.30
2022-12-19T22:31:39.765Z,24.38
2022-12-19T22:36:42.943Z,30.75
2022-12-19T22:41:44.740Z,26.95
2022-12-19T22:46:47.381Z,29.58
2022-12-19T22:51:49.992Z,23.92
2022-12-19T22:56:52.154Z,27.83
2022-12-19T23:01:54.528Z,20.77
2022-12-19T23:06:56.869Z,28.58
2022-12-19T23:11:58.527Z,30.42
2022-12-19T23:17:00.785Z,23.42
2022-12-19T23:22:02.651Z,24.75
2022-12-19T23:27:04.506Z,21.85
2022-12-19T23:32:06.415Z,26.63
2022-12-19T23:37:11.470Z,33.33
2022-12-19T23:42:14.126Z,29.73
2022-12-19T23:47:15.930Z,29.45
2022-12-19T23:52:17.629Z,23.95
2022-12-19T23:57:19.771Z,26.83
